sensor_id;sensor_type;location;lat;lon;timestamp;temperature;humidity
38684;DHT22;24910;53.248;-6.134;2023-02-26T00:00:17;8.60;66.50
38684;DHT22;24910;53.248;-6.134;2023-02-26T00:02:47;8.60;66.70
38684;DHT22;24910;53.248;-6.134;2023-02-26T00:05:16;8.60;67.00
38684;DHT22;24910;53.248;-6.134;2023-02-26T00:07:47;8.60;67.00
38684;DHT22;24910;53.248;-6.134;2023-02-26T00:10:16;8.50;66.80
38684;DHT22;24910;53.248;-6.134;2023-02-26T00:12:46;8.50;66.60
38684;DHT22;24910;53.248;-6.134;2023-02-26T00:15:16;8.50;66.50
38684;DHT22;24910;53.248;-6.134;2023-02-26T00:17:51;8.50;66.10
38684;DHT22;24910;53.248;-6.134;2023-02-26T00:20:24;8.50;65.80
38684;DHT22;24910;53.248;-6.134;2023-02-26T00:22:55;8.50;65.60
38684;DHT22;24910;53.248;-6.134;2023-02-26T00:25:25;8.50;65.50
38684;DHT22;24910;53.248;-6.134;2023-02-26T00:27:57;8.40;65.40
38684;DHT22;24910;53.248;-6.134;2023-02-26T00:30:26;8.40;65.20
38684;DHT22;24910;53.248;-6.134;2023-02-26T00:32:56;8.40;64.60
38684;DHT22;24910;53.248;-6.134;2023-02-26T00:35:25;8.40;64.40
38684;DHT22;24910;53.248;-6.134;2023-02-26T00:37:59;8.40;64.50
38684;DHT22;24910;53.248;-6.134;2023-02-26T00:40:35;8.40;64.90
38684;DHT22;24910;53.248;-6.134;2023-02-26T00:43:06;8.40;65.40
38684;DHT22;24910;53.248;-6.134;2023-02-26T00:45:36;8.30;65.90
38684;DHT22;24910;53.248;-6.134;2023-02-26T00:48:35;8.30;66.10
38684;DHT22;24910;53.248;-6.134;2023-02-26T00:51:12;8.30;65.90
38684;DHT22;24910;53.248;-6.134;2023-02-26T00:53:54;8.20;65.80
38684;DHT22;24910;53.248;-6.134;2023-02-26T00:56:25;8.20;65.90
38684;DHT22;24910;53.248;-6.134;2023-02-26T00:58:54;8.20;66.00
38684;DHT22;24910;53.248;-6.134;2023-02-26T01:01:24;8.20;66.60
38684;DHT22;24910;53.248;-6.134;2023-02-26T01:03:54;8.20;66.80
38684;DHT22;24910;53.248;-6.134;2023-02-26T01:06:27;8.30;66.80
38684;DHT22;24910;53.248;-6.134;2023-02-26T01:09:04;8.30;66.60
38684;DHT22;24910;53.248;-6.134;2023-02-26T01:11:37;8.30;66.30
38684;DHT22;24910;53.248;-6.134;2023-02-26T01:14:07;8.30;65.90
38684;DHT22;24910;53.248;-6.134;2023-02-26T01:16:43;8.20;65.40
38684;DHT22;24910;53.248;-6.134;2023-02-26T01:19:23;8.30;65.50
38684;DHT22;24910;53.248;-6.134;2023-02-26T01:21:59;8.30;65.70
38684;DHT22;24910;53.248;-6.134;2023-02-26T01:24:32;8.30;65.80
38684;DHT22;24910;53.248;-6.134;2023-02-26T01:27:02;8.40;65.80
38684;DHT22;24910;53.248;-6.134;2023-02-26T01:29:32;8.40;65.70
38684;DHT22;24910;53.248;-6.134;2023-02-26T01:32:05;8.30;65.40
38684;DHT22;24910;53.248;-6.134;2023-02-26T01:34:40;8.40;65.60
38684;DHT22;24910;53.248;-6.134;2023-02-26T01:37:20;8.40;66.00
38684;DHT22;24910;53.248;-6.134;2023-02-26T01:40:05;8.30;66.40
38684;DHT22;24910;53.248;-6.134;2023-02-26T01:42:42;8.30;66.80
38684;DHT22;24910;53.248;-6.134;2023-02-26T01:45:16;8.30;66.90
38684;DHT22;24910;53.248;-6.134;2023-02-26T01:47:50;8.30;67.10
38684;DHT22;24910;53.248;-6.134;2023-02-26T01:50:24;8.20;67.20
38684;DHT22;24910;53.248;-6.134;2023-02-26T01:53:20;8.20;67.30
38684;DHT22;24910;53.248;-6.134;2023-02-26T01:55:55;8.20;66.70
38684;DHT22;24910;53.248;-6.134;2023-02-26T01:58:26;8.20;66.30
38684;DHT22;24910;53.248;-6.134;2023-02-26T02:00:56;8.20;66.20
38684;DHT22;24910;53.248;-6.134;2023-02-26T02:03:27;8.20;66.20
38684;DHT22;24910;53.248;-6.134;2023-02-26T02:06:02;8.10;66.00
38684;DHT22;24910;53.248;-6.134;2023-02-26T02:08:33;8.10;65.70
38684;DHT22;24910;53.248;-6.134;2023-02-26T02:11:07;8.10;65.50
38684;DHT22;24910;53.248;-6.134;2023-02-26T02:13:44;8.10;66.20
38684;DHT22;24910;53.248;-6.134;2023-02-26T02:16:20;8.10;64.70
38684;DHT22;24910;53.248;-6.134;2023-02-26T02:19:00;8.10;64.40
38684;DHT22;24910;53.248;-6.134;2023-02-26T02:21:53;8.10;64.30
38684;DHT22;24910;53.248;-6.134;2023-02-26T02:24:30;8.10;64.30
38684;DHT22;24910;53.248;-6.134;2023-02-26T02:27:08;8.00;64.50
38684;DHT22;24910;53.248;-6.134;2023-02-26T02:30:02;8.00;65.00
38684;DHT22;24910;53.248;-6.134;2023-02-26T02:32:43;8.10;65.50
38684;DHT22;24910;53.248;-6.134;2023-02-26T02:35:17;8.10;65.50
38684;DHT22;24910;53.248;-6.134;2023-02-26T02:37:54;8.10;65.30
38684;DHT22;24910;53.248;-6.134;2023-02-26T02:40:28;8.10;65.20
38684;DHT22;24910;53.248;-6.134;2023-02-26T02:43:01;8.10;65.10
38684;DHT22;24910;53.248;-6.134;2023-02-26T02:45:37;8.10;65.00
38684;DHT22;24910;53.248;-6.134;2023-02-26T02:48:15;8.10;65.00
38684;DHT22;24910;53.248;-6.134;2023-02-26T02:50:47;8.10;65.20
38684;DHT22;24910;53.248;-6.134;2023-02-26T02:53:23;8.10;65.20
38684;DHT22;24910;53.248;-6.134;2023-02-26T02:55:55;8.10;65.40
38684;DHT22;24910;53.248;-6.134;2023-02-26T02:58:30;8.10;65.50
38684;DHT22;24910;53.248;-6.134;2023-02-26T03:01:02;8.10;65.80
38684;DHT22;24910;53.248;-6.134;2023-02-26T03:03:37;8.20;66.10
38684;DHT22;24910;53.248;-6.134;2023-02-26T03:06:10;8.20;66.30
38684;DHT22;24910;53.248;-6.134;2023-02-26T03:08:40;8.10;66.40
38684;DHT22;24910;53.248;-6.134;2023-02-26T03:11:10;8.20;66.70
38684;DHT22;24910;53.248;-6.134;2023-02-26T03:13:40;8.20;66.80
38684;DHT22;24910;53.248;-6.134;2023-02-26T03:16:35;8.10;66.60
38684;DHT22;24910;53.248;-6.134;2023-02-26T03:19:15;8.20;66.60
38684;DHT22;24910;53.248;-6.134;2023-02-26T03:21:48;8.20;66.50
38684;DHT22;24910;53.248;-6.134;2023-02-26T03:24:47;8.10;66.10
38684;DHT22;24910;53.248;-6.134;2023-02-26T03:27:22;8.10;65.90
38684;DHT22;24910;53.248;-6.134;2023-02-26T03:29:57;8.10;66.00
38684;DHT22;24910;53.248;-6.134;2023-02-26T03:32:40;8.10;66.00
38684;DHT22;24910;53.248;-6.134;2023-02-26T03:35:14;8.10;66.00
38684;DHT22;24910;53.248;-6.134;2023-02-26T03:37:46;8.10;66.10
38684;DHT22;24910;53.248;-6.134;2023-02-26T03:40:19;8.20;66.30
38684;DHT22;24910;53.248;-6.134;2023-02-26T03:42:54;8.20;66.50
38684;DHT22;24910;53.248;-6.134;2023-02-26T03:45:29;8.20;66.40
38684;DHT22;24910;53.248;-6.134;2023-02-26T03:48:00;8.10;66.20
38684;DHT22;24910;53.248;-6.134;2023-02-26T03:50:35;8.20;66.30
38684;DHT22;24910;53.248;-6.134;2023-02-26T03:53:31;8.20;66.40
38684;DHT22;24910;53.248;-6.134;2023-02-26T03:56:15;8.30;66.70
38684;DHT22;24910;53.248;-6.134;2023-02-26T03:59:05;8.30;66.90
38684;DHT22;24910;53.248;-6.134;2023-02-26T04:02:04;8.30;67.00
38684;DHT22;24910;53.248;-6.134;2023-02-26T04:04:40;8.30;67.10
38684;DHT22;24910;53.248;-6.134;2023-02-26T04:07:12;8.40;67.40
38684;DHT22;24910;53.248;-6.134;2023-02-26T04:09:42;8.40;67.40
38684;DHT22;24910;53.248;-6.134;2023-02-26T04:12:12;8.40;67.40
38684;DHT22;24910;53.248;-6.134;2023-02-26T04:14:46;8.40;67.40
38684;DHT22;24910;53.248;-6.134;2023-02-26T04:17:15;8.40;67.70
38684;DHT22;24910;53.248;-6.134;2023-02-26T04:19:45;8.30;67.90
38684;DHT22;24910;53.248;-6.134;2023-02-26T04:22:16;8.40;68.30
38684;DHT22;24910;53.248;-6.134;2023-02-26T04:24:45;8.40;68.40
38684;DHT22;24910;53.248;-6.134;2023-02-26T04:27:16;8.40;68.50
38684;DHT22;24910;53.248;-6.134;2023-02-26T04:29:45;8.30;68.30
38684;DHT22;24910;53.248;-6.134;2023-02-26T04:32:14;8.30;68.00
38684;DHT22;24910;53.248;-6.134;2023-02-26T04:34:44;8.30;67.70
38684;DHT22;24910;53.248;-6.134;2023-02-26T04:37:17;8.30;67.30
38684;DHT22;24910;53.248;-6.134;2023-02-26T04:39:47;8.20;67.30
38684;DHT22;24910;53.248;-6.134;2023-02-26T04:42:16;8.30;67.20
38684;DHT22;24910;53.248;-6.134;2023-02-26T04:44:45;8.30;67.10
38684;DHT22;24910;53.248;-6.134;2023-02-26T04:47:14;8.30;67.30
38684;DHT22;24910;53.248;-6.134;2023-02-26T04:49:43;8.20;67.10
38684;DHT22;24910;53.248;-6.134;2023-02-26T04:52:12;8.20;67.00
38684;DHT22;24910;53.248;-6.134;2023-02-26T04:54:43;8.20;68.10
38684;DHT22;24910;53.248;-6.134;2023-02-26T04:57:15;8.20;67.30
38684;DHT22;24910;53.248;-6.134;2023-02-26T04:59:44;8.20;67.30
38684;DHT22;24910;53.248;-6.134;2023-02-26T05:02:13;8.20;66.80
38684;DHT22;24910;53.248;-6.134;2023-02-26T05:04:46;8.30;66.70
38684;DHT22;24910;53.248;-6.134;2023-02-26T05:07:15;8.30;66.40
38684;DHT22;24910;53.248;-6.134;2023-02-26T05:09:45;8.20;66.00
38684;DHT22;24910;53.248;-6.134;2023-02-26T05:12:14;8.20;65.70
38684;DHT22;24910;53.248;-6.134;2023-02-26T05:14:43;8.20;65.60
38684;DHT22;24910;53.248;-6.134;2023-02-26T05:17:12;8.20;65.50
38684;DHT22;24910;53.248;-6.134;2023-02-26T05:19:42;8.20;65.30
38684;DHT22;24910;53.248;-6.134;2023-02-26T05:22:11;8.20;65.30
38684;DHT22;24910;53.248;-6.134;2023-02-26T05:24:40;8.20;64.90
38684;DHT22;24910;53.248;-6.134;2023-02-26T05:27:11;8.20;64.70
38684;DHT22;24910;53.248;-6.134;2023-02-26T05:29:45;8.20;64.30
38684;DHT22;24910;53.248;-6.134;2023-02-26T05:32:14;8.20;64.00
38684;DHT22;24910;53.248;-6.134;2023-02-26T05:34:43;8.20;63.90
38684;DHT22;24910;53.248;-6.134;2023-02-26T05:37:12;8.20;63.70
38684;DHT22;24910;53.248;-6.134;2023-02-26T05:39:41;8.30;63.50
38684;DHT22;24910;53.248;-6.134;2023-02-26T05:42:12;8.30;63.30
38684;DHT22;24910;53.248;-6.134;2023-02-26T05:44:41;8.30;63.30
38684;DHT22;24910;53.248;-6.134;2023-02-26T05:47:10;8.30;63.40
38684;DHT22;24910;53.248;-6.134;2023-02-26T05:49:39;8.30;63.50
38684;DHT22;24910;53.248;-6.134;2023-02-26T05:52:08;8.30;63.80
38684;DHT22;24910;53.248;-6.134;2023-02-26T05:54:37;8.30;64.10
38684;DHT22;24910;53.248;-6.134;2023-02-26T05:57:06;8.30;64.10
38684;DHT22;24910;53.248;-6.134;2023-02-26T05:59:36;8.30;64.10
38684;DHT22;24910;53.248;-6.134;2023-02-26T06:02:06;8.20;63.90
38684;DHT22;24910;53.248;-6.134;2023-02-26T06:04:35;8.20;63.80
38684;DHT22;24910;53.248;-6.134;2023-02-26T06:07:04;8.20;63.70
38684;DHT22;24910;53.248;-6.134;2023-02-26T06:09:33;8.20;63.60
38684;DHT22;24910;53.248;-6.134;2023-02-26T06:12:02;8.30;63.80
38684;DHT22;24910;53.248;-6.134;2023-02-26T06:14:31;8.30;63.70
38684;DHT22;24910;53.248;-6.134;2023-02-26T06:17:02;8.20;63.60
38684;DHT22;24910;53.248;-6.134;2023-02-26T06:19:31;8.30;63.70
38684;DHT22;24910;53.248;-6.134;2023-02-26T06:22:00;8.30;63.60
38684;DHT22;24910;53.248;-6.134;2023-02-26T06:24:29;8.20;63.30
38684;DHT22;24910;53.248;-6.134;2023-02-26T06:26:58;8.30;63.20
38684;DHT22;24910;53.248;-6.134;2023-02-26T06:29:27;8.30;63.00
38684;DHT22;24910;53.248;-6.134;2023-02-26T06:31:56;8.30;63.10
38684;DHT22;24910;53.248;-6.134;2023-02-26T06:34:27;8.30;63.30
38684;DHT22;24910;53.248;-6.134;2023-02-26T06:36:56;8.30;63.40
38684;DHT22;24910;53.248;-6.134;2023-02-26T06:39:25;8.30;63.50
38684;DHT22;24910;53.248;-6.134;2023-02-26T06:41:54;8.30;63.80
38684;DHT22;24910;53.248;-6.134;2023-02-26T06:44:23;8.30;63.90
38684;DHT22;24910;53.248;-6.134;2023-02-26T06:46:56;8.30;63.80
38684;DHT22;24910;53.248;-6.134;2023-02-26T06:49:26;8.30;63.80
38684;DHT22;24910;53.248;-6.134;2023-02-26T06:51:55;8.30;63.90
38684;DHT22;24910;53.248;-6.134;2023-02-26T06:54:24;8.30;64.00
38684;DHT22;24910;53.248;-6.134;2023-02-26T06:56:53;8.30;63.80
38684;DHT22;24910;53.248;-6.134;2023-02-26T06:59:24;8.30;64.00
38684;DHT22;24910;53.248;-6.134;2023-02-26T07:01:53;8.30;64.90
38684;DHT22;24910;53.248;-6.134;2023-02-26T07:04:22;8.20;65.30
38684;DHT22;24910;53.248;-6.134;2023-02-26T07:06:53;8.30;65.70
38684;DHT22;24910;53.248;-6.134;2023-02-26T07:09:22;8.20;65.80
38684;DHT22;24910;53.248;-6.134;2023-02-26T07:11:51;8.30;66.00
38684;DHT22;24910;53.248;-6.134;2023-02-26T07:14:20;8.30;65.90
38684;DHT22;24910;53.248;-6.134;2023-02-26T07:16:49;8.20;66.20
38684;DHT22;24910;53.248;-6.134;2023-02-26T07:19:18;8.20;66.30
38684;DHT22;24910;53.248;-6.134;2023-02-26T07:21:49;8.30;66.40
38684;DHT22;24910;53.248;-6.134;2023-02-26T07:24:20;8.20;66.40
38684;DHT22;24910;53.248;-6.134;2023-02-26T07:26:49;8.20;66.60
38684;DHT22;24910;53.248;-6.134;2023-02-26T07:29:18;8.20;66.80
38684;DHT22;24910;53.248;-6.134;2023-02-26T07:31:47;8.30;67.30
38684;DHT22;24910;53.248;-6.134;2023-02-26T07:34:16;8.30;67.70
38684;DHT22;24910;53.248;-6.134;2023-02-26T07:36:45;8.20;68.00
38684;DHT22;24910;53.248;-6.134;2023-02-26T07:39:14;8.20;68.10
38684;DHT22;24910;53.248;-6.134;2023-02-26T07:41:45;8.20;68.10
38684;DHT22;24910;53.248;-6.134;2023-02-26T07:44:14;8.30;68.00
38684;DHT22;24910;53.248;-6.134;2023-02-26T07:46:44;8.20;67.80
38684;DHT22;24910;53.248;-6.134;2023-02-26T07:49:13;8.30;67.40
38684;DHT22;24910;53.248;-6.134;2023-02-26T07:51:42;8.30;67.30
38684;DHT22;24910;53.248;-6.134;2023-02-26T07:54:13;8.30;67.40
38684;DHT22;24910;53.248;-6.134;2023-02-26T07:56:42;8.30;67.70
38684;DHT22;24910;53.248;-6.134;2023-02-26T07:59:14;8.30;68.00
38684;DHT22;24910;53.248;-6.134;2023-02-26T08:01:43;8.40;68.30
38684;DHT22;24910;53.248;-6.134;2023-02-26T08:04:12;8.30;68.40
38684;DHT22;24910;53.248;-6.134;2023-02-26T08:06:42;8.30;68.50
38684;DHT22;24910;53.248;-6.134;2023-02-26T08:09:12;8.30;68.70
38684;DHT22;24910;53.248;-6.134;2023-02-26T08:11:42;8.30;68.70
38684;DHT22;24910;53.248;-6.134;2023-02-26T08:14:13;8.30;68.50
38684;DHT22;24910;53.248;-6.134;2023-02-26T08:16:42;8.30;68.70
38684;DHT22;24910;53.248;-6.134;2023-02-26T08:19:11;8.30;68.70
38684;DHT22;24910;53.248;-6.134;2023-02-26T08:21:40;8.30;68.40
38684;DHT22;24910;53.248;-6.134;2023-02-26T08:24:10;8.30;68.30
38684;DHT22;24910;53.248;-6.134;2023-02-26T08:26:40;8.30;68.10
38684;DHT22;24910;53.248;-6.134;2023-02-26T08:29:09;8.30;68.10
38684;DHT22;24910;53.248;-6.134;2023-02-26T08:31:40;8.30;68.20
38684;DHT22;24910;53.248;-6.134;2023-02-26T08:34:09;8.40;67.90
38684;DHT22;24910;53.248;-6.134;2023-02-26T08:36:38;8.40;67.40
38684;DHT22;24910;53.248;-6.134;2023-02-26T08:39:07;8.30;67.30
38684;DHT22;24910;53.248;-6.134;2023-02-26T08:41:37;8.40;67.80
38684;DHT22;24910;53.248;-6.134;2023-02-26T08:44:09;8.40;68.00
38684;DHT22;24910;53.248;-6.134;2023-02-26T08:46:39;8.40;67.80
38684;DHT22;24910;53.248;-6.134;2023-02-26T08:49:09;8.40;67.80
38684;DHT22;24910;53.248;-6.134;2023-02-26T08:51:38;8.40;67.50
38684;DHT22;24910;53.248;-6.134;2023-02-26T08:54:07;8.40;67.90
38684;DHT22;24910;53.248;-6.134;2023-02-26T08:56:36;8.50;68.30
38684;DHT22;24910;53.248;-6.134;2023-02-26T08:59:06;8.40;69.30
38684;DHT22;24910;53.248;-6.134;2023-02-26T09:01:36;8.40;69.00
38684;DHT22;24910;53.248;-6.134;2023-02-26T09:04:07;8.40;69.40
38684;DHT22;24910;53.248;-6.134;2023-02-26T09:06:36;8.40;69.90
38684;DHT22;24910;53.248;-6.134;2023-02-26T09:09:05;8.30;70.30
38684;DHT22;24910;53.248;-6.134;2023-02-26T09:11:34;8.30;70.80
38684;DHT22;24910;53.248;-6.134;2023-02-26T09:14:03;8.30;71.10
38684;DHT22;24910;53.248;-6.134;2023-02-26T09:16:32;8.40;71.10
38684;DHT22;24910;53.248;-6.134;2023-02-26T09:19:04;8.50;71.20
38684;DHT22;24910;53.248;-6.134;2023-02-26T09:21:35;8.60;71.30
38684;DHT22;24910;53.248;-6.134;2023-02-26T09:24:04;8.80;71.00
38684;DHT22;24910;53.248;-6.134;2023-02-26T09:26:33;9.00;70.70
38684;DHT22;24910;53.248;-6.134;2023-02-26T09:29:02;9.10;69.80
38684;DHT22;24910;53.248;-6.134;2023-02-26T09:31:31;9.10;69.00
38684;DHT22;24910;53.248;-6.134;2023-02-26T09:34:01;9.10;68.80
38684;DHT22;24910;53.248;-6.134;2023-02-26T09:36:30;9.00;68.80
38684;DHT22;24910;53.248;-6.134;2023-02-26T09:39:01;8.90;68.80
38684;DHT22;24910;53.248;-6.134;2023-02-26T09:41:33;8.80;68.40
38684;DHT22;24910;53.248;-6.134;2023-02-26T09:44:11;8.80;68.60
38684;DHT22;24910;53.248;-6.134;2023-02-26T09:46:47;8.80;68.80
38684;DHT22;24910;53.248;-6.134;2023-02-26T09:49:29;8.70;68.50
38684;DHT22;24910;53.248;-6.134;2023-02-26T09:52:03;8.80;68.60
38684;DHT22;24910;53.248;-6.134;2023-02-26T09:54:41;8.70;68.70
38684;DHT22;24910;53.248;-6.134;2023-02-26T09:57:19;8.70;68.90
38684;DHT22;24910;53.248;-6.134;2023-02-26T09:59:49;8.70;68.90
38684;DHT22;24910;53.248;-6.134;2023-02-26T10:02:23;8.70;69.10
38684;DHT22;24910;53.248;-6.134;2023-02-26T10:05:03;8.70;69.20
38684;DHT22;24910;53.248;-6.134;2023-02-26T10:07:41;8.70;69.60
38684;DHT22;24910;53.248;-6.134;2023-02-26T10:10:19;8.70;69.80
38684;DHT22;24910;53.248;-6.134;2023-02-26T10:12:50;8.70;70.40
38684;DHT22;24910;53.248;-6.134;2023-02-26T10:15:22;8.70;70.60
38684;DHT22;24910;53.248;-6.134;2023-02-26T10:18:07;8.70;70.90
38684;DHT22;24910;53.248;-6.134;2023-02-26T10:20:46;8.70;71.10
38684;DHT22;24910;53.248;-6.134;2023-02-26T10:23:22;8.80;71.10
38684;DHT22;24910;53.248;-6.134;2023-02-26T10:26:00;8.90;71.00
38684;DHT22;24910;53.248;-6.134;2023-02-26T10:28:40;9.00;70.80
38684;DHT22;24910;53.248;-6.134;2023-02-26T10:31:16;9.10;70.80
38684;DHT22;24910;53.248;-6.134;2023-02-26T10:33:51;9.20;70.70
38684;DHT22;24910;53.248;-6.134;2023-02-26T10:36:24;9.20;70.60
38684;DHT22;24910;53.248;-6.134;2023-02-26T10:39:03;9.20;70.60
38684;DHT22;24910;53.248;-6.134;2023-02-26T10:41:38;9.10;70.60
38684;DHT22;24910;53.248;-6.134;2023-02-26T10:44:14;9.10;70.70
38684;DHT22;24910;53.248;-6.134;2023-02-26T10:46:51;9.10;70.60
38684;DHT22;24910;53.248;-6.134;2023-02-26T10:49:46;9.20;70.50
38684;DHT22;24910;53.248;-6.134;2023-02-26T10:52:19;9.20;70.50
38684;DHT22;24910;53.248;-6.134;2023-02-26T10:57:50;9.30;70.30
38684;DHT22;24910;53.248;-6.134;2023-02-26T11:00:21;9.30;70.00
38684;DHT22;24910;53.248;-6.134;2023-02-26T11:02:52;9.30;69.90
38684;DHT22;24910;53.248;-6.134;2023-02-26T11:05:23;9.30;69.80
38684;DHT22;24910;53.248;-6.134;2023-02-26T11:07:53;9.30;69.50
38684;DHT22;24910;53.248;-6.134;2023-02-26T11:10:24;9.20;69.30
38684;DHT22;24910;53.248;-6.134;2023-02-26T11:12:55;9.20;69.30
38684;DHT22;24910;53.248;-6.134;2023-02-26T11:15:25;9.20;69.40
38684;DHT22;24910;53.248;-6.134;2023-02-26T11:17:56;9.20;69.60
38684;DHT22;24910;53.248;-6.134;2023-02-26T11:20:29;9.20;69.80
38684;DHT22;24910;53.248;-6.134;2023-02-26T11:23:01;9.20;69.80
38684;DHT22;24910;53.248;-6.134;2023-02-26T11:25:31;9.10;70.60
38684;DHT22;24910;53.248;-6.134;2023-02-26T11:28:06;9.10;69.80
38684;DHT22;24910;53.248;-6.134;2023-02-26T11:30:37;9.10;70.20
38684;DHT22;24910;53.248;-6.134;2023-02-26T11:33:12;9.10;70.30
38684;DHT22;24910;53.248;-6.134;2023-02-26T11:35:44;9.10;70.50
38684;DHT22;24910;53.248;-6.134;2023-02-26T11:38:18;9.10;70.40
38684;DHT22;24910;53.248;-6.134;2023-02-26T11:40:51;9.10;70.60
38684;DHT22;24910;53.248;-6.134;2023-02-26T11:43:26;9.10;70.60
38684;DHT22;24910;53.248;-6.134;2023-02-26T11:46:02;9.10;70.90
38684;DHT22;24910;53.248;-6.134;2023-02-26T11:48:39;9.10;71.20
38684;DHT22;24910;53.248;-6.134;2023-02-26T11:51:12;9.10;71.40
38684;DHT22;24910;53.248;-6.134;2023-02-26T11:53:48;9.10;71.60
38684;DHT22;24910;53.248;-6.134;2023-02-26T11:56:28;9.10;71.70
38684;DHT22;24910;53.248;-6.134;2023-02-26T11:59:06;9.10;71.70
38684;DHT22;24910;53.248;-6.134;2023-02-26T12:01:36;9.10;71.60
38684;DHT22;24910;53.248;-6.134;2023-02-26T12:04:08;9.20;71.60
38684;DHT22;24910;53.248;-6.134;2023-02-26T12:06:38;9.20;71.50
38684;DHT22;24910;53.248;-6.134;2023-02-26T12:09:11;9.20;71.40
38684;DHT22;24910;53.248;-6.134;2023-02-26T12:12:04;9.30;71.40
38684;DHT22;24910;53.248;-6.134;2023-02-26T12:14:51;9.40;71.10
38684;DHT22;24910;53.248;-6.134;2023-02-26T12:17:30;9.40;70.70
38684;DHT22;24910;53.248;-6.134;2023-02-26T12:20:13;9.60;70.70
38684;DHT22;24910;53.248;-6.134;2023-02-26T12:22:55;9.60;70.50
38684;DHT22;24910;53.248;-6.134;2023-02-26T12:25:49;9.70;70.40
38684;DHT22;24910;53.248;-6.134;2023-02-26T12:34:33;9.60;69.90
38684;DHT22;24910;53.248;-6.134;2023-02-26T12:37:18;9.60;69.90
38684;DHT22;24910;53.248;-6.134;2023-02-26T12:39:56;9.70;70.00
38684;DHT22;24910;53.248;-6.134;2023-02-26T12:42:37;9.70;69.80
38684;DHT22;24910;53.248;-6.134;2023-02-26T12:45:22;9.80;69.60
38684;DHT22;24910;53.248;-6.134;2023-02-26T12:48:16;9.80;69.50
38684;DHT22;24910;53.248;-6.134;2023-02-26T12:50:58;9.90;69.30
38684;DHT22;24910;53.248;-6.134;2023-02-26T12:59:43;9.80;69.40
38684;DHT22;24910;53.248;-6.134;2023-02-26T13:05:42;9.90;69.30
38684;DHT22;24910;53.248;-6.134;2023-02-26T13:08:20;10.00;69.00
38684;DHT22;24910;53.248;-6.134;2023-02-26T13:11:00;10.00;69.00
38684;DHT22;24910;53.248;-6.134;2023-02-26T13:14:01;10.10;68.80
38684;DHT22;24910;53.248;-6.134;2023-02-26T13:16:39;10.10;68.40
38684;DHT22;24910;53.248;-6.134;2023-02-26T13:19:20;10.10;68.10
38684;DHT22;24910;53.248;-6.134;2023-02-26T13:21:57;10.10;68.10
38684;DHT22;24910;53.248;-6.134;2023-02-26T13:24:33;10.20;68.20
38684;DHT22;24910;53.248;-6.134;2023-02-26T13:27:04;10.10;68.10
38684;DHT22;24910;53.248;-6.134;2023-02-26T13:29:34;10.10;68.40
38684;DHT22;24910;53.248;-6.134;2023-02-26T13:32:08;10.10;68.40
38684;DHT22;24910;53.248;-6.134;2023-02-26T13:34:42;10.20;68.50
38684;DHT22;24910;53.248;-6.134;2023-02-26T13:37:21;10.20;68.50
38684;DHT22;24910;53.248;-6.134;2023-02-26T13:40:00;10.20;68.50
38684;DHT22;24910;53.248;-6.134;2023-02-26T13:42:41;10.10;68.50
38684;DHT22;24910;53.248;-6.134;2023-02-26T13:45:26;10.10;68.70
38684;DHT22;24910;53.248;-6.134;2023-02-26T13:48:09;10.00;68.70
38684;DHT22;24910;53.248;-6.134;2023-02-26T13:50:48;10.00;69.00
38684;DHT22;24910;53.248;-6.134;2023-02-26T13:53:52;9.90;69.00
38684;DHT22;24910;53.248;-6.134;2023-02-26T13:59:30;10.00;69.20
38684;DHT22;24910;53.248;-6.134;2023-02-26T14:08:49;9.90;69.20
38684;DHT22;24910;53.248;-6.134;2023-02-26T14:11:37;9.80;67.90
38684;DHT22;24910;53.248;-6.134;2023-02-26T14:14:12;9.80;67.10
38684;DHT22;24910;53.248;-6.134;2023-02-26T14:16:43;9.70;66.30
38684;DHT22;24910;53.248;-6.134;2023-02-26T14:19:26;9.70;66.10
38684;DHT22;24910;53.248;-6.134;2023-02-26T14:22:00;9.80;66.70
38684;DHT22;24910;53.248;-6.134;2023-02-26T14:24:31;9.80;67.40
38684;DHT22;24910;53.248;-6.134;2023-02-26T14:27:22;9.80;68.00
38684;DHT22;24910;53.248;-6.134;2023-02-26T14:30:04;9.90;68.30
38684;DHT22;24910;53.248;-6.134;2023-02-26T14:32:37;9.90;68.40
38684;DHT22;24910;53.248;-6.134;2023-02-26T14:35:15;9.80;68.30
38684;DHT22;24910;53.248;-6.134;2023-02-26T14:37:56;9.80;68.30
38684;DHT22;24910;53.248;-6.134;2023-02-26T14:40:29;9.80;68.30
38684;DHT22;24910;53.248;-6.134;2023-02-26T14:43:05;9.80;68.30
38684;DHT22;24910;53.248;-6.134;2023-02-26T14:45:37;9.80;68.30
38684;DHT22;24910;53.248;-6.134;2023-02-26T14:48:12;9.80;68.30
38684;DHT22;24910;53.248;-6.134;2023-02-26T14:50:54;9.80;67.90
38684;DHT22;24910;53.248;-6.134;2023-02-26T14:53:53;9.80;67.60
38684;DHT22;24910;53.248;-6.134;2023-02-26T14:56:33;9.80;67.00
38684;DHT22;24910;53.248;-6.134;2023-02-26T14:59:14;9.80;66.70
38684;DHT22;24910;53.248;-6.134;2023-02-26T15:01:49;9.70;66.20
38684;DHT22;24910;53.248;-6.134;2023-02-26T15:07:43;9.70;65.80
38684;DHT22;24910;53.248;-6.134;2023-02-26T15:10:31;9.80;65.70
38684;DHT22;24910;53.248;-6.134;2023-02-26T15:13:18;9.80;65.80
38684;DHT22;24910;53.248;-6.134;2023-02-26T15:15:55;9.70;65.80
38684;DHT22;24910;53.248;-6.134;2023-02-26T15:18:46;9.70;65.90
38684;DHT22;24910;53.248;-6.134;2023-02-26T15:21:24;9.80;66.00
38684;DHT22;24910;53.248;-6.134;2023-02-26T15:23:57;9.90;66.20
38684;DHT22;24910;53.248;-6.134;2023-02-26T15:26:28;9.90;67.10
38684;DHT22;24910;53.248;-6.134;2023-02-26T15:29:01;9.90;66.20
38684;DHT22;24910;53.248;-6.134;2023-02-26T15:31:34;9.90;66.00
38684;DHT22;24910;53.248;-6.134;2023-02-26T15:34:04;9.90;65.90
38684;DHT22;24910;53.248;-6.134;2023-02-26T15:36:34;9.90;66.10
38684;DHT22;24910;53.248;-6.134;2023-02-26T15:39:05;9.80;65.90
38684;DHT22;24910;53.248;-6.134;2023-02-26T15:41:37;9.90;66.10
38684;DHT22;24910;53.248;-6.134;2023-02-26T15:44:08;9.80;66.20
38684;DHT22;24910;53.248;-6.134;2023-02-26T15:46:44;9.80;66.50
38684;DHT22;24910;53.248;-6.134;2023-02-26T15:49:19;9.70;66.40
38684;DHT22;24910;53.248;-6.134;2023-02-26T15:51:52;9.60;66.30
38684;DHT22;24910;53.248;-6.134;2023-02-26T15:54:23;9.60;66.50
38684;DHT22;24910;53.248;-6.134;2023-02-26T15:56:53;9.50;66.80
38684;DHT22;24910;53.248;-6.134;2023-02-26T15:59:26;9.50;67.90
38684;DHT22;24910;53.248;-6.134;2023-02-26T16:01:57;9.50;66.90
38684;DHT22;24910;53.248;-6.134;2023-02-26T16:04:29;9.40;66.80
38684;DHT22;24910;53.248;-6.134;2023-02-26T16:06:58;9.50;67.00
38684;DHT22;24910;53.248;-6.134;2023-02-26T16:09:29;9.50;67.20
38684;DHT22;24910;53.248;-6.134;2023-02-26T16:12:01;9.50;67.20
38684;DHT22;24910;53.248;-6.134;2023-02-26T16:14:36;9.50;67.20
38684;DHT22;24910;53.248;-6.134;2023-02-26T16:17:12;9.40;66.80
38684;DHT22;24910;53.248;-6.134;2023-02-26T16:19:44;9.40;66.60
38684;DHT22;24910;53.248;-6.134;2023-02-26T16:22:20;9.40;66.20
38684;DHT22;24910;53.248;-6.134;2023-02-26T16:24:54;9.40;66.30
38684;DHT22;24910;53.248;-6.134;2023-02-26T16:27:26;9.40;66.40
38684;DHT22;24910;53.248;-6.134;2023-02-26T16:30:02;9.50;66.40
38684;DHT22;24910;53.248;-6.134;2023-02-26T16:32:34;9.40;66.40
38684;DHT22;24910;53.248;-6.134;2023-02-26T16:35:11;9.40;66.60
38684;DHT22;24910;53.248;-6.134;2023-02-26T16:37:45;9.40;66.80
38684;DHT22;24910;53.248;-6.134;2023-02-26T16:40:18;9.40;67.70
38684;DHT22;24910;53.248;-6.134;2023-02-26T16:42:54;9.30;66.80